Time;durP1;ratioP1;P1;durP2;ratioP2;P2;SDS_P1;SDS_P2;PMS_P1;PMS_P2;Temp;Humidity;BMP_temperature;BMP_pressure;BME280_temperature;BME280_humidity;BME280_pressure;Samples;Min_cycle;Max_cycle;Signal;HPM_P1;HPM_P2
2022/10/16 00:01:38;;;;;;;;;3.00;1.25;;;;;18.13;67.69;100418.13;4977281;28;45710;-81
2022/10/16 00:07:39;;;;;;;;;1.00;1.00;;;;;18.09;68.13;100424.72;4976319;28;45493;-79
2022/10/16 00:10:04;;;;;;;;;2.25;1.00;;;;;18.06;67.71;100413.63;4976840;28;45615;-80
2022/10/16 00:12:30;;;;;;;;;1.00;1.00;;;;;18.07;68.12;100412.63;4976589;28;45519;-79
2022/10/16 00:14:55;;;;;;;;;1.00;1.00;;;;;18.03;68.05;100417.41;4976275;28;45704;-80
2022/10/16 00:17:20;;;;;;;;;1.00;1.00;;;;;18.03;68.13;100414.75;4976232;28;45643;-83
2022/10/16 00:19:45;;;;;;;;;1.00;1.00;;;;;18.03;67.55;100434.16;4977862;28;45668;-81
2022/10/16 00:22:11;;;;;;;;;1.00;1.00;;;;;18.04;67.59;100449.06;4987759;28;45511;-87
2022/10/16 00:24:36;;;;;;;;;2.00;1.00;;;;;18.03;68.19;100435.97;4978741;28;45794;-85
2022/10/16 00:27:02;;;;;;;;;1.00;1.00;;;;;18.05;67.87;100439.31;4997421;28;45584;-86
2022/10/16 00:29:27;;;;;;;;;1.00;1.00;;;;;18.04;67.51;100442.94;4996821;28;45776;-86
2022/10/16 00:31:52;;;;;;;;;1.00;1.00;;;;;18.07;67.95;100433.84;4996441;28;45541;-86
2022/10/16 00:37:40;;;;;;;;;2.25;1.00;;;;;18.08;68.30;100444.31;4995107;28;45621;-85
2022/10/16 00:40:06;;;;;;;;;0.50;0.50;;;;;18.08;67.89;100444.31;4995435;28;45731;-83
2022/10/16 00:42:31;;;;;;;;;1.50;1.50;;;;;18.07;68.31;100458.53;4995370;28;45433;-81
2022/10/16 00:44:57;;;;;;;;;1.50;1.00;;;;;18.06;68.34;100454.22;4995277;28;45684;-81
2022/10/16 00:47:28;;;;;;;;;0.75;0.75;;;;;18.06;68.01;100453.41;4977595;28;46434;-80
2022/10/16 00:53:17;;;;;;;;;1.00;1.00;;;;;18.06;68.33;100456.03;4995039;28;45828;-83
2022/10/16 00:55:42;;;;;;;;;2.00;1.00;;;;;18.04;67.95;100449.06;4995350;28;45569;-85
2022/10/16 00:58:09;;;;;;;;;1.00;1.00;;;;;17.99;67.91;100442.59;4977222;28;48377;-85
2022/10/16 01:00:34;;;;;;;;;1.00;1.00;;;;;18.04;68.41;100441.13;4995313;28;45776;-81
2022/10/16 01:03:01;;;;;;;;;1.00;1.00;;;;;18.04;68.46;100446.44;4994869;28;45425;-86
2022/10/16 01:05:44;;;;;;;;;2.00;1.00;;;;;18.07;67.86;100441.81;4995218;28;45791;-80
2022/10/16 01:08:21;;;;;;;;;1.75;1.00;;;;;18.04;67.87;100435.81;4995884;28;46610;-81
2022/10/16 01:10:59;;;;;;;;;1.00;1.00;;;;;18.06;68.00;100438.31;4995680;28;45794;-80
2022/10/16 01:13:32;;;;;;;;;2.00;2.00;;;;;18.06;67.85;100448.94;4995042;28;45732;-78
2022/10/16 01:16:09;;;;;;;;;2.00;1.00;;;;;18.07;68.44;100457.72;4994999;28;45770;-79
2022/10/16 01:18:57;;;;;;;;;2.00;1.00;;;;;18.06;68.17;100459.53;4994829;28;46685;-81
2022/10/16 01:21:31;;;;;;;;;1.00;1.00;;;;;18.04;68.33;100464.97;4994818;28;45879;-79
2022/10/16 01:24:15;;;;;;;;;1.00;1.00;;;;;18.04;68.50;100472.09;4994921;28;45600;-80
2022/10/16 01:27:13;;;;;;;;;1.00;1.00;;;;;18.06;68.00;100472.78;4994897;28;45631;-80
2022/10/16 01:30:02;;;;;;;;;1.00;1.00;;;;;18.05;68.59;100452.56;4994910;28;46396;-81
2022/10/16 01:32:30;;;;;;;;;1.00;1.00;;;;;18.03;68.47;100468.63;4994806;28;45632;-80
2022/10/16 01:35:05;;;;;;;;;1.00;1.00;;;;;18.04;68.44;100469.47;4994454;28;45596;-81
2022/10/16 01:37:43;;;;;;;;;1.00;1.00;;;;;18.01;67.93;100473.28;4994796;28;45772;-83
2022/10/16 01:40:15;;;;;;;;;1.00;1.00;;;;;18.03;67.97;100473.91;4994793;28;46735;-83
2022/10/16 01:42:46;;;;;;;;;0.75;0.00;;;;;18.03;68.42;100471.28;4994319;28;45815;-81
2022/10/16 01:45:15;;;;;;;;;1.50;1.00;;;;;18.04;67.88;100470.28;4994464;28;45819;-80
2022/10/16 01:47:41;;;;;;;;;1.50;0.75;;;;;18.02;67.72;100455.53;4994614;28;45822;-81
2022/10/16 01:50:08;;;;;;;;;0.50;0.50;;;;;18.03;68.02;100463.31;4994686;28;45891;-81
2022/10/16 01:52:41;;;;;;;;;1.00;1.00;;;;;18.03;68.12;100457.19;4976082;28;47763;-82
2022/10/16 01:55:10;;;;;;;;;0.00;0.00;;;;;18.04;67.69;100467.63;4994545;28;45652;-81
2022/10/16 01:57:40;;;;;;;;;0.25;0.00;;;;;18.05;67.51;100463.16;4976834;28;45681;-81
2022/10/16 02:00:10;;;;;;;;;0.00;0.00;;;;;18.03;67.52;100452.72;4994387;28;45636;-83
2022/10/16 02:02:36;;;;;;;;;0.00;0.00;;;;;18.04;68.18;100462.34;4994480;28;47271;-81
2022/10/16 02:05:14;;;;;;;;;0.00;0.00;;;;;18.06;67.49;100467.47;4994357;28;45490;-81
2022/10/16 02:07:41;;;;;;;;;1.00;0.00;;;;;18.03;68.13;100468.63;4994753;28;45790;-82
2022/10/16 02:10:08;;;;;;;;;0.00;0.00;;;;;18.06;67.48;100464.84;4994101;28;46466;-80
2022/10/16 02:12:39;;;;;;;;;1.00;1.00;;;;;18.02;67.65;100452.91;4993910;28;45836;-81
2022/10/16 02:15:05;;;;;;;;;0.50;0.00;;;;;18.03;67.57;100462.47;4993932;28;45685;-82
2022/10/16 02:17:30;;;;;;;;;0.50;0.50;;;;;18.02;67.89;100477.59;4994005;28;45590;-84
2022/10/16 02:19:57;;;;;;;;;0.00;0.00;;;;;18.02;67.68;100474.09;4994078;28;45695;-81
2022/10/16 02:22:40;;;;;;;;;1.00;0.00;;;;;18.03;67.92;100471.28;4993651;28;46014;-80
2022/10/16 02:25:30;;;;;;;;;0.50;0.50;;;;;18.02;67.56;100466.97;4993827;28;45616;-80
2022/10/16 02:28:08;;;;;;;;;0.00;0.00;;;;;18.03;68.06;100467.78;4993799;28;45533;-80
2022/10/16 02:30:45;;;;;;;;;0.00;0.00;;;;;18.02;67.90;100476.75;4994042;28;46508;-83
2022/10/16 02:33:13;;;;;;;;;0.00;0.00;;;;;18.00;67.76;100474.25;4993767;28;46134;-85
2022/10/16 02:35:40;;;;;;;;;0.00;0.00;;;;;18.03;67.27;100478.41;4993622;28;45567;-80
2022/10/16 02:38:08;;;;;;;;;0.00;0.00;;;;;18.01;67.85;100478.56;4994197;28;45533;-83
2022/10/16 02:40:34;;;;;;;;;0.00;0.00;;;;;18.02;67.65;100482.91;4993853;28;46346;-86
2022/10/16 02:42:59;;;;;;;;;0.00;0.00;;;;;18.02;67.57;100477.59;4979659;28;48634;-86
2022/10/16 02:45:25;;;;;;;;;0.00;0.00;;;;;18.00;67.56;100473.44;4997510;28;45838;-86
2022/10/16 02:47:51;;;;;;;;;0.00;0.00;;;;;18.01;67.24;100488.34;4999351;28;45651;-88
2022/10/16 02:50:16;;;;;;;;;0.00;0.00;;;;;17.97;66.98;100484.38;4999990;28;45692;-87
2022/10/16 02:52:42;;;;;;;;;0.25;0.25;;;;;18.00;67.55;100498.13;5000237;28;46398;-86
2022/10/16 02:55:08;;;;;;;;;1.00;0.00;;;;;18.00;67.33;100498.13;4999502;28;45582;-86
2022/10/16 02:57:33;;;;;;;;;0.00;0.00;;;;;18.00;67.25;100498.13;4997918;28;45787;-85
2022/10/16 02:59:58;;;;;;;;;0.00;0.00;;;;;17.98;66.89;100492.13;4997962;28;45710;-84
2022/10/16 03:02:24;;;;;;;;;0.00;0.00;;;;;17.97;67.10;100492.31;4997347;28;45486;-84
2022/10/16 03:04:49;;;;;;;;;0.00;0.00;;;;;17.96;67.29;100502.09;4996818;28;45521;-84
2022/10/16 03:07:15;;;;;;;;;0.00;0.00;;;;;17.97;66.93;100508.22;4997262;28;45636;-82
2022/10/16 03:09:40;;;;;;;;;0.00;0.00;;;;;17.93;66.47;100494.44;4995313;28;47812;-85
2022/10/16 03:12:06;;;;;;;;;0.00;0.00;;;;;17.91;66.51;100501.72;4996707;28;45640;-86
2022/10/16 03:14:31;;;;;;;;;0.00;0.00;;;;;17.88;66.40;100498.53;4978506;28;45564;-84
2022/10/16 03:16:57;;;;;;;;;0.00;0.00;;;;;17.86;66.71;100496.09;4996893;28;45746;-83
2022/10/16 03:19:22;;;;;;;;;0.00;0.00;;;;;17.84;66.64;100494.56;4996692;28;46461;-85
2022/10/16 03:25:49;;;;;;;;;0.00;0.00;;;;;17.82;66.25;100509.78;4995159;28;45590;-82
2022/10/16 03:28:15;;;;;;;;;0.00;0.00;;;;;17.81;66.44;100508.16;4996652;28;45660;-85
2022/10/16 03:30:40;;;;;;;;;0.00;0.00;;;;;17.79;66.31;100500.34;4996308;28;45558;-83
2022/10/16 03:33:06;;;;;;;;;0.00;0.00;;;;;17.78;66.56;100481.94;4996391;28;45537;-83
2022/10/16 03:35:32;;;;;;;;;0.00;0.00;;;;;17.77;66.46;100474.97;4994747;28;45573;-82
2022/10/16 03:37:58;;;;;;;;;0.25;0.00;;;;;17.73;66.51;100461.22;4978633;28;45623;-85
2022/10/16 03:40:24;;;;;;;;;0.00;0.00;;;;;17.75;66.30;100466.38;4996583;28;45516;-83
2022/10/16 03:42:49;;;;;;;;;0.00;0.00;;;;;17.72;66.41;100469.31;4996345;28;45632;-82
2022/10/16 03:45:14;;;;;;;;;0.00;0.00;;;;;17.75;66.59;100475.16;4996729;28;45617;-82
2022/10/16 03:47:40;;;;;;;;;0.00;0.00;;;;;17.74;66.69;100486.72;4996577;28;45732;-82
2022/10/16 03:56:49;;;;;;;;;0.00;0.00;;;;;17.76;66.35;100490.03;4995456;28;45481;-82
2022/10/16 03:59:15;;;;;;;;;0.00;0.00;;;;;17.76;66.20;100499.84;4996234;28;45639;-83
2022/10/16 04:01:40;;;;;;;;;0.00;0.00;;;;;17.73;66.25;100503.63;4995746;28;45575;-83
2022/10/16 04:04:05;;;;;;;;;0.00;0.00;;;;;17.73;66.75;100492.19;4994503;28;47828;-81
2022/10/16 04:06:31;;;;;;;;;0.00;0.00;;;;;17.74;66.32;100489.38;4995655;28;45572;-80
2022/10/16 04:08:56;;;;;;;;;0.00;0.00;;;;;17.74;66.66;100485.91;4996054;28;45501;-79
2022/10/16 04:11:22;;;;;;;;;0.00;0.00;;;;;17.75;66.19;100500.81;4995823;28;45475;-79
2022/10/16 04:13:48;;;;;;;;;0.00;0.00;;;;;17.72;66.26;100494.00;4995690;28;45711;-80
2022/10/16 04:16:13;;;;;;;;;1.50;0.00;;;;;17.73;66.37;100511.56;4995859;28;45544;-80
2022/10/16 04:18:39;;;;;;;;;0.00;0.00;;;;;17.72;66.22;100504.59;4996413;28;45831;-80
2022/10/16 04:21:06;;;;;;;;;0.00;0.00;;;;;17.72;66.03;100498.47;4996191;28;46429;-81
2022/10/16 04:23:32;;;;;;;;;0.00;0.00;;;;;17.73;66.10;100497.47;4995941;28;45765;-81
2022/10/16 04:25:57;;;;;;;;;0.00;0.00;;;;;17.70;66.29;100497.81;4974160;28;45715;-80
2022/10/16 04:28:23;;;;;;;;;0.00;0.00;;;;;17.72;66.43;100506.41;4976268;28;45604;-79
2022/10/16 04:30:48;;;;;;;;;0.00;0.00;;;;;17.69;66.40;100520.84;4974838;28;47777;-80
2022/10/16 04:33:14;;;;;;;;;0.00;0.00;;;;;17.67;66.26;100511.34;4976194;28;45594;-80
2022/10/16 04:35:39;;;;;;;;;0.00;0.00;;;;;17.67;66.69;100528.09;4976469;28;45624;-80
2022/10/16 04:41:26;;;;;;;;;0.00;0.00;;;;;17.59;66.40;100546.56;4975989;28;45627;-81
2022/10/16 04:43:52;;;;;;;;;0.00;0.00;;;;;17.56;66.81;100544.22;4976056;28;46120;-82
2022/10/16 04:46:17;;;;;;;;;0.00;0.00;;;;;17.54;66.68;100546.22;4975836;28;45782;-82
2022/10/16 04:48:42;;;;;;;;;0.00;0.00;;;;;17.50;66.99;100543.00;4975900;28;45593;-83
2022/10/16 04:51:08;;;;;;;;;1.00;0.00;;;;;17.50;66.98;100550.97;4976763;28;46212;-84
2022/10/16 04:53:34;;;;;;;;;0.00;0.00;;;;;17.47;67.08;100553.94;4976373;28;45623;-85
2022/10/16 04:55:59;;;;;;;;;0.00;0.00;;;;;17.45;66.79;100557.72;4958528;28;45678;-81
2022/10/16 04:58:24;;;;;;;;;0.00;0.00;;;;;17.41;67.38;100553.72;4978630;28;45489;-85
2022/10/16 05:00:50;;;;;;;;;0.00;0.00;;;;;17.38;67.42;100556.69;4976680;28;45535;-86
2022/10/16 05:03:15;;;;;;;;;0.00;0.00;;;;;17.34;67.16;100572.03;4976873;28;46298;-87
2022/10/16 05:05:45;;;;;;;;;0.00;0.00;;;;;17.26;67.20;100571.97;4976777;28;45450;-86
2022/10/16 05:11:33;;;;;;;;;1.00;0.00;;;;;17.19;68.13;100574.41;4975468;28;46284;-84
2022/10/16 05:13:58;;;;;;;;;0.00;0.00;;;;;17.18;67.60;100577.19;4975987;28;45910;-87
2022/10/16 05:16:24;;;;;;;;;0.00;0.00;;;;;17.18;67.93;100572.72;4976245;28;45654;-87
2022/10/16 05:18:51;;;;;;;;;0.00;0.00;;;;;17.16;68.17;100581.81;4977364;28;45698;-86
2022/10/16 05:27:50;;;;;;;;;0.00;0.00;;;;;17.14;67.88;100607.59;4998830;28;45766;-81
2022/10/16 05:30:17;;;;;;;;;0.00;0.00;;;;;17.10;68.57;100600.97;4999225;28;45529;-82
2022/10/16 05:32:47;;;;;;;;;0.00;0.00;;;;;17.13;68.38;100611.25;4997087;28;45713;-81
2022/10/16 05:35:13;;;;;;;;;0.00;0.00;;;;;17.12;67.89;100601.63;4995022;28;46511;-80
2022/10/16 05:41:00;;;;;;;;;0.75;0.00;;;;;17.16;68.35;100603.00;4997601;28;45810;-84
2022/10/16 05:43:27;;;;;;;;;0.00;0.00;;;;;17.18;67.75;100595.72;4998173;28;45533;-83
2022/10/16 05:45:58;;;;;;;;;0.00;0.00;;;;;17.18;67.85;100595.72;4998442;28;45485;-84
2022/10/16 05:48:24;;;;;;;;;0.00;0.00;;;;;17.18;67.72;100608.97;4998169;28;45658;-80
2022/10/16 05:50:57;;;;;;;;;0.00;0.00;;;;;17.16;68.02;100605.66;5000938;28;45605;-81
2022/10/16 05:56:44;;;;;;;;;0.00;0.00;;;;;17.19;68.10;100597.41;4999842;28;45841;-83
2022/10/16 05:59:09;;;;;;;;;0.00;0.00;;;;;17.21;68.22;100611.31;5000188;28;45636;-81
2022/10/16 06:01:35;;;;;;;;;0.00;0.00;;;;;17.22;67.94;100598.94;5001186;28;45410;-83
2022/10/16 06:04:00;;;;;;;;;0.00;0.00;;;;;17.22;68.31;100602.38;5000348;28;46141;-87
2022/10/16 06:06:27;;;;;;;;;0.00;0.00;;;;;17.22;68.11;100598.94;5000150;28;45850;-86
2022/10/16 06:12:14;;;;;;;;;0.00;0.00;;;;;17.19;67.89;100594.75;5001016;28;45458;-83
2022/10/16 06:14:40;;;;;;;;;0.00;0.00;;;;;17.22;68.21;100604.22;5001002;28;46257;-83
2022/10/16 06:17:05;;;;;;;;;1.00;0.00;;;;;17.20;67.97;100602.56;4985253;28;47953;-85
2022/10/16 06:19:31;;;;;;;;;0.00;0.00;;;;;17.18;68.27;100604.50;5001987;28;45486;-83
2022/10/16 06:21:57;;;;;;;;;0.00;0.00;;;;;17.21;67.83;100606.03;5002087;28;45498;-82
2022/10/16 06:27:45;;;;;;;;;0.00;0.00;;;;;17.27;68.00;100609.88;4998159;28;45704;-84
2022/10/16 06:30:10;;;;;;;;;0.00;0.00;;;;;17.28;67.90;100606.22;5000740;28;45586;-84
2022/10/16 06:32:36;;;;;;;;;1.00;0.25;;;;;17.27;67.77;100608.06;4999574;28;45502;-81
2022/10/16 06:35:01;;;;;;;;;0.75;0.00;;;;;17.29;67.88;100610.56;4999111;28;45595;-83
2022/10/16 06:37:27;;;;;;;;;0.75;0.00;;;;;17.29;68.13;100614.03;4999636;28;46610;-82
2022/10/16 06:39:52;;;;;;;;;0.00;0.00;;;;;17.23;67.96;100596.09;4999400;28;45768;-86
2022/10/16 06:42:18;;;;;;;;;0.00;0.00;;;;;17.25;68.42;100609.19;4998153;28;45664;-81
2022/10/16 06:44:44;;;;;;;;;35.25;29.25;;;;;17.25;68.59;100615.31;4998330;28;45665;-84
2022/10/16 06:47:09;;;;;;;;;1.00;1.00;;;;;17.26;68.35;100621.47;4998888;28;45792;-81
2022/10/16 06:49:35;;;;;;;;;2.00;1.25;;;;;17.23;68.20;100613.81;4999829;28;45870;-84
2022/10/16 06:52:01;;;;;;;;;2.00;1.00;;;;;17.25;68.15;100620.63;4998942;28;45811;-82
2022/10/16 06:57:48;;;;;;;;;1.00;1.00;;;;;17.25;67.97;100636.50;4997698;28;46175;-84
2022/10/16 07:00:14;;;;;;;;;1.00;0.00;;;;;17.28;68.11;100646.78;4997157;28;45556;-83
2022/10/16 07:02:39;;;;;;;;;0.00;0.00;;;;;17.26;68.51;100642.66;4997240;28;45782;-83
2022/10/16 07:05:05;;;;;;;;;1.75;1.00;;;;;17.30;68.14;100644.84;4996645;28;45657;-84
2022/10/16 07:07:30;;;;;;;;;6.50;6.25;;;;;17.31;68.13;100651.81;4996761;28;45721;-84
2022/10/16 07:13:17;;;;;;;;;4.50;3.00;;;;;17.37;67.81;100664.44;4997561;28;45649;-83
2022/10/16 07:15:42;;;;;;;;;4.00;4.00;;;;;17.40;68.15;100668.59;4978582;28;47776;-82
2022/10/16 07:18:08;;;;;;;;;1.00;1.00;;;;;17.39;68.01;100659.81;4996759;28;45884;-84
2022/10/16 07:20:33;;;;;;;;;0.00;0.00;;;;;17.45;67.95;100667.16;4996646;28;45540;-82
2022/10/16 07:22:58;;;;;;;;;1.00;1.00;;;;;17.48;68.03;100680.13;4996323;28;45716;-87
2022/10/16 07:25:24;;;;;;;;;1.00;1.00;;;;;17.47;67.85;100667.00;4996488;28;45779;-87
2022/10/16 07:27:49;;;;;;;;;1.00;1.00;;;;;17.51;67.74;100671.00;4996175;28;45644;-86
2022/10/16 07:30:15;;;;;;;;;1.00;1.00;;;;;17.47;67.80;100667.00;4996638;28;45597;-85
2022/10/16 07:32:40;;;;;;;;;1.00;1.00;;;;;17.52;67.91;100676.16;4996827;28;45552;-85
2022/10/16 07:35:06;;;;;;;;;0.00;0.00;;;;;17.54;67.61;100678.66;4996474;28;46698;-86
2022/10/16 07:37:32;;;;;;;;;1.75;1.00;;;;;17.52;67.66;100678.81;4996146;28;45903;-85
2022/10/16 07:43:19;;;;;;;;;0.00;0.00;;;;;17.59;67.62;100694.94;4996210;28;45629;-78
2022/10/16 07:45:49;;;;;;;;;1.00;1.00;;;;;17.61;67.80;100704.41;4978239;28;46989;-78
2022/10/16 07:48:30;;;;;;;;;1.00;0.25;;;;;17.63;67.74;100711.41;4996247;28;46230;-80
2022/10/16 07:51:00;;;;;;;;;1.00;1.00;;;;;17.67;67.73;100723.34;4996173;28;45553;-78
2022/10/16 07:53:26;;;;;;;;;1.00;1.00;;;;;17.71;67.68;100711.44;4996152;28;45955;-82
2022/10/16 07:55:52;;;;;;;;;1.00;1.00;;;;;17.75;67.39;100702.22;4995939;28;46940;-79
2022/10/16 07:58:17;;;;;;;;;2.00;1.50;;;;;17.80;67.54;100711.41;4978003;28;46028;-83
2022/10/16 08:00:42;;;;;;;;;2.00;1.00;;;;;17.82;68.10;100712.06;4996114;28;45698;-82
2022/10/16 08:03:08;;;;;;;;;1.00;1.00;;;;;17.90;67.66;100729.84;4978734;28;45918;-82
2022/10/16 08:05:34;;;;;;;;;1.00;1.00;;;;;17.91;67.44;100715.63;4995338;28;45610;-80
2022/10/16 08:08:01;;;;;;;;;1.50;1.50;;;;;17.95;67.60;100733.72;4995570;28;45619;-80
2022/10/16 08:13:48;;;;;;;;;2.25;1.75;;;;;18.05;67.40;100736.28;4995670;28;45610;-79
2022/10/16 08:16:13;;;;;;;;;3.00;2.00;;;;;18.09;67.91;100740.28;4996336;28;45576;-82
2022/10/16 08:18:40;;;;;;;;;1.00;1.00;;;;;18.14;67.60;100734.53;4995293;28;45638;-81
2022/10/16 08:21:07;;;;;;;;;1.75;1.25;;;;;18.15;67.38;100726.41;4995588;28;45742;-81
2022/10/16 08:23:34;;;;;;;;;1.75;1.75;;;;;18.18;67.56;100733.22;4999997;28;45764;-88
2022/10/16 08:29:21;;;;;;;;;1.25;1.25;;;;;18.26;67.17;100727.97;4993345;28;46087;-82
2022/10/16 08:31:46;;;;;;;;;3.25;2.00;;;;;18.27;67.27;100725.16;4977356;28;45759;-76
2022/10/16 08:34:11;;;;;;;;;1.00;1.00;;;;;18.31;67.10;100733.63;4995682;28;45615;-74
2022/10/16 08:36:38;;;;;;;;;2.00;2.00;;;;;18.32;67.29;100735.31;4977724;28;48354;-78
2022/10/16 08:39:03;;;;;;;;;1.25;1.25;;;;;18.35;66.82;100738.47;4994689;28;45995;-75
2022/10/16 08:45:15;;;;;;;;;2.00;1.25;;;;;18.40;66.84;100738.84;4997308;28;45719;-74
2022/10/16 08:47:53;;;;;;;;;1.75;1.00;;;;;18.43;67.41;100746.50;4995358;28;45506;-84
2022/10/16 08:50:24;;;;;;;;;1.50;1.50;;;;;18.43;66.93;100735.03;4995314;28;46172;-81
2022/10/16 08:52:50;;;;;;;;;2.00;2.00;;;;;18.45;67.29;100743.69;4995705;28;45612;-83
2022/10/16 08:55:49;;;;;;;;;2.00;1.25;;;;;18.45;66.78;100733.91;4994936;28;45451;-74
2022/10/16 08:58:20;;;;;;;;;3.00;3.00;;;;;18.45;66.90;100743.69;4973008;28;48787;-75
2022/10/16 09:00:57;;;;;;;;;3.25;3.25;;;;;18.44;66.74;100747.31;4994515;28;45907;-76
2022/10/16 09:03:59;;;;;;;;;7.25;7.25;;;;;18.44;67.42;100745.50;4994486;28;45482;-75
2022/10/16 09:06:38;;;;;;;;;4.00;3.25;;;;;18.45;66.84;100755.13;4994578;28;45517;-76
2022/10/16 09:12:31;;;;;;;;;5.00;4.00;;;;;18.49;66.95;100757.47;4993745;28;45670;-79
2022/10/16 09:15:11;;;;;;;;;3.50;3.00;;;;;18.48;66.88;100753.16;4994272;28;45647;-77
2022/10/16 09:18:24;;;;;;;;;5.50;5.00;;;;;18.52;67.21;100742.06;4994585;28;45604;-78
2022/10/16 09:21:08;;;;;;;;;3.00;2.75;;;;;18.54;67.52;100742.78;4914158;28;45643;-78
2022/10/16 09:23:37;;;;;;;;;4.00;3.25;;;;;18.56;66.82;100737.31;4914824;28;45942;-75
2022/10/16 09:29:24;;;;;;;;;3.75;3.00;;;;;18.61;67.03;100742.97;4914711;28;45580;-81
2022/10/16 09:31:51;;;;;;;;;5.25;5.25;;;;;18.64;66.78;100747.97;4914498;28;45731;-81
2022/10/16 09:34:39;;;;;;;;;3.25;3.25;;;;;18.71;66.72;100754.31;4914193;28;45975;-79
2022/10/16 09:37:12;;;;;;;;;3.50;3.00;;;;;18.75;66.24;100751.19;4914683;28;45700;-79
2022/10/16 09:39:47;;;;;;;;;2.25;2.25;;;;;18.83;66.60;100750.41;4914297;28;45679;-79
2022/10/16 09:45:34;;;;;;;;;2.00;2.00;;;;;18.99;66.39;100765.56;4914317;28;45666;-84
2022/10/16 09:48:10;;;;;;;;;4.00;3.00;;;;;19.05;66.28;100763.13;4914849;28;45620;-82
2022/10/16 09:50:35;;;;;;;;;2.00;2.00;;;;;19.11;65.51;100762.44;4918484;28;45526;-84
2022/10/16 09:53:14;;;;;;;;;2.00;2.00;;;;;19.18;65.32;100752.03;4918129;28;45695;-85
2022/10/16 09:55:53;;;;;;;;;1.00;1.00;;;;;19.23;65.68;100752.38;4931097;28;46185;-85
2022/10/16 09:58:26;;;;;;;;;1.00;1.00;;;;;19.28;65.10;100744.75;4997845;28;45494;-82
2022/10/16 10:00:53;;;;;;;;;2.25;2.00;;;;;19.36;65.42;100738.63;4997672;28;45650;-79
2022/10/16 10:03:40;;;;;;;;;1.00;1.00;;;;;19.41;65.22;100738.97;4995072;28;48518;-77
2022/10/16 10:06:25;;;;;;;;;2.00;2.00;;;;;19.45;64.86;100741.19;4997177;28;45755;-76
2022/10/16 10:09:16;;;;;;;;;1.00;1.00;;;;;19.47;64.81;100731.22;4997334;28;45627;-79
2022/10/16 10:11:58;;;;;;;;;2.00;2.00;;;;;19.50;64.77;100730.06;4997000;28;45789;-78
2022/10/16 10:14:31;;;;;;;;;2.00;2.00;;;;;19.50;64.40;100725.56;4996876;28;45676;-78
2022/10/16 10:17:23;;;;;;;;;2.00;2.00;;;;;19.55;63.95;100728.56;4997052;28;46110;-80
2022/10/16 10:19:57;;;;;;;;;1.00;1.00;;;;;19.57;64.24;100723.94;4997405;28;45565;-79
2022/10/16 10:22:25;;;;;;;;;3.00;3.00;;;;;19.61;64.26;100724.41;4997201;28;45692;-83
2022/10/16 10:25:09;;;;;;;;;2.50;2.50;;;;;19.66;64.11;100724.75;4997064;28;46511;-77
2022/10/16 10:27:43;;;;;;;;;2.25;2.00;;;;;19.71;64.00;100725.09;4997151;28;45994;-83
2022/10/16 10:30:26;;;;;;;;;3.00;3.00;;;;;19.76;63.42;100721.97;4997242;28;45700;-88
2022/10/16 10:33:10;;;;;;;;;4.50;4.50;;;;;19.81;63.57;100732.94;4999154;28;45877;-85
2022/10/16 10:35:38;;;;;;;;;4.00;3.50;;;;;19.87;63.32;100727.75;4997179;28;45529;-82
2022/10/16 10:38:39;;;;;;;;;2.50;2.00;;;;;19.93;63.44;100726.25;4997136;28;45911;-84
2022/10/16 10:44:53;;;;;;;;;2.00;2.00;;;;;20.02;62.72;100726.13;4998024;28;45499;-82
2022/10/16 10:47:43;;;;;;;;;2.75;2.25;;;;;20.06;62.61;100722.13;4997004;28;45665;-81
2022/10/16 10:50:22;;;;;;;;;1.00;1.00;;;;;20.12;62.49;100733.91;4997431;28;45730;-84
2022/10/16 10:52:50;;;;;;;;;1.00;1.00;;;;;20.17;62.52;100731.59;4997883;28;45660;-84
2022/10/16 10:55:27;;;;;;;;;3.25;1.50;;;;;20.20;62.59;100735.72;4980826;28;45539;-82
2022/10/16 11:01:39;;;;;;;;;1.00;1.00;;;;;20.29;62.13;100727.59;5000766;28;45469;-87
2022/10/16 11:04:26;;;;;;;;;3.75;3.25;;;;;20.35;62.42;100712.81;5000006;28;45632;-88
2022/10/16 11:07:04;;;;;;;;;2.50;1.50;;;;;20.38;62.45;100707.97;4980911;28;45564;-82
2022/10/16 11:09:41;;;;;;;;;3.00;2.25;;;;;20.41;62.78;100698.78;4998337;28;46672;-82
2022/10/16 11:12:21;;;;;;;;;1.50;1.50;;;;;20.42;62.28;100697.78;4999387;28;46517;-86
2022/10/16 11:15:04;;;;;;;;;1.50;1.50;;;;;20.44;62.46;100704.63;4999479;28;45682;-90
2022/10/16 11:18:01;;;;;;;;;4.00;3.75;;;;;20.49;62.23;100707.59;4999182;28;46020;-87
2022/10/16 11:20:31;;;;;;;;;1.00;0.00;;;;;20.55;62.23;100699.94;5000757;28;46461;-83
2022/10/16 11:23:05;;;;;;;;;0.75;0.00;;;;;20.62;62.14;100704.38;5003770;28;46298;-82
2022/10/16 11:25:31;;;;;;;;;1.00;1.00;;;;;20.65;61.62;100704.06;5000834;28;45604;-81
2022/10/16 11:28:09;;;;;;;;;0.00;0.00;;;;;20.68;61.66;100697.53;5003179;28;45624;-86
2022/10/16 11:31:00;;;;;;;;;3.00;2.00;;;;;20.72;61.75;100698.88;4981736;28;45791;-84
2022/10/16 11:33:33;;;;;;;;;0.25;0.25;;;;;20.75;62.03;100699.34;4980924;28;46276;-83
2022/10/16 11:36:04;;;;;;;;;0.00;0.00;;;;;20.76;61.59;100703.69;4984257;28;45809;-83
2022/10/16 11:38:51;;;;;;;;;0.50;0.50;;;;;20.79;61.72;100703.31;4978690;28;45835;-82
2022/10/16 11:45:07;;;;;;;;;1.00;1.00;;;;;20.82;61.33;100686.19;4899800;28;45836;-82
2022/10/16 11:47:36;;;;;;;;;1.25;1.25;;;;;20.87;61.47;100683.81;4898973;29;45652;-80
2022/10/16 11:50:22;;;;;;;;;0.25;0.00;;;;;20.91;61.24;100679.81;4899755;29;45793;-84
2022/10/16 11:52:55;;;;;;;;;0.25;0.25;;;;;20.97;61.45;100670.28;4898185;29;45746;-85
2022/10/16 11:55:26;;;;;;;;;0.00;0.00;;;;;20.99;61.59;100673.63;4897373;29;46267;-82
2022/10/16 12:01:19;;;;;;;;;0.00;0.00;;;;;21.04;61.05;100666.75;4896575;28;45743;-81
2022/10/16 12:04:33;;;;;;;;;0.00;0.00;;;;;21.06;61.29;100662.06;4896472;29;45728;-82
2022/10/16 12:07:08;;;;;;;;;0.75;0.25;;;;;21.06;61.02;100662.06;4840104;29;45987;-81
2022/10/16 12:09:38;;;;;;;;;1.00;1.00;;;;;21.07;60.71;100642.41;4840727;29;45911;-82
2022/10/16 12:12:03;;;;;;;;;0.75;0.00;;;;;21.07;61.17;100639.75;4840567;29;45824;-85
2022/10/16 12:14:41;;;;;;;;;1.00;0.00;;;;;21.09;61.01;100647.59;4839698;29;48444;-87
2022/10/16 12:20:36;;;;;;;;;0.50;0.50;;;;;21.08;61.31;100659.25;4854365;29;45784;-87
2022/10/16 12:23:06;;;;;;;;;0.00;0.00;;;;;21.08;61.24;100657.41;4897162;28;45732;-82
2022/10/16 12:25:35;;;;;;;;;0.00;0.00;;;;;21.11;60.94;100657.03;4896459;29;45548;-82
2022/10/16 12:28:05;;;;;;;;;1.00;1.00;;;;;21.14;61.13;100654.06;4896243;29;46282;-82
2022/10/16 12:30:34;;;;;;;;;0.75;0.75;;;;;21.16;60.78;100643.25;4861531;29;45641;-82
2022/10/16 12:33:16;;;;;;;;;1.00;0.50;;;;;21.22;60.88;100651.34;4877837;29;45877;-80
2022/10/16 12:35:45;;;;;;;;;1.00;1.00;;;;;21.24;60.72;100653.84;4861396;29;46449;-80
2022/10/16 12:38:26;;;;;;;;;0.75;0.00;;;;;21.27;60.63;100643.66;4877019;29;47578;-82
2022/10/16 12:41:04;;;;;;;;;1.00;0.75;;;;;21.30;61.02;100632.66;4877506;29;45691;-81
2022/10/16 12:43:42;;;;;;;;;0.00;0.00;;;;;21.37;60.73;100648.75;4943831;28;46049;-80
2022/10/16 12:46:10;;;;;;;;;0.75;0.75;;;;;21.41;61.18;100638.56;4975258;28;46412;-80
2022/10/16 12:48:37;;;;;;;;;0.75;0.75;;;;;21.43;61.04;100639.22;4975359;28;46082;-79
2022/10/16 12:51:33;;;;;;;;;1.00;1.00;;;;;21.44;61.00;100628.34;4975705;28;45521;-79
2022/10/16 12:53:58;;;;;;;;;1.25;1.25;;;;;21.48;61.25;100628.84;4975629;28;45722;-79
2022/10/16 12:56:28;;;;;;;;;3.25;3.00;;;;;21.49;60.92;100620.66;4975141;28;46300;-79
2022/10/16 12:59:06;;;;;;;;;1.25;1.25;;;;;21.50;61.30;100619.66;4974911;28;46134;-73
2022/10/16 13:01:42;;;;;;;;;1.00;1.00;;;;;21.52;60.60;100628.31;4975060;28;45466;-72
2022/10/16 13:04:20;;;;;;;;;1.00;1.00;;;;;21.53;60.80;100631.81;4975266;28;45482;-74
2022/10/16 13:07:13;;;;;;;;;1.00;1.00;;;;;21.52;60.75;100620.31;4974754;28;46593;-76
2022/10/16 13:10:03;;;;;;;;;2.00;1.25;;;;;21.53;61.56;100621.16;4877064;29;45972;-72
2022/10/16 13:15:58;;;;;;;;;2.25;2.00;;;;;21.55;61.04;100614.59;4875151;29;45653;-78
2022/10/16 13:18:38;;;;;;;;;1.25;1.25;;;;;21.60;61.22;100622.91;4876817;29;46467;-77
2022/10/16 13:21:31;;;;;;;;;1.75;1.75;;;;;21.67;61.17;100607.84;4876533;29;45838;-77